CAL522 ZGGG-RCTP
Flight info
| Callsign | CAL522 |
|---|---|
| Flight time | 1h 28m |
| Altitude | 24600 |
| Route | VIBOS R473 SIERA/N0473F390 DCT MULET DCT SKATE DCT CONGA V631 ENVAR M750 TONGA |
| Aircraft | A333/H-SADE1E2E3GHIJ1J3J5M1P2RWXY/LB2D1 |
Departure
| Time | 2026-05-07 08:27 |
|---|---|
| Airport | Guangzhou Baiyun International Airport (ZGGG) |
Arrival
| Time | 2026-05-07 09:55 |
|---|---|
| Airport | Taiwan Taoyuan International Airport (RCTP) |
| Time | Latitude | Longitude | Altitude | Speed | Heading |
|---|---|---|---|---|---|
| 2026-05-07 07:49 | 23.39817 | 113.30462 | 47 ft | 0 kts | 228° |
| 2026-05-07 08:19 | 23.39813 | 113.30455 | 47 ft | 5 kts | 238° |
| 2026-05-07 08:20 | 23.39823 | 113.30433 | 47 ft | 4 kts | 344° |
| 2026-05-07 08:20 | 23.39871 | 113.30442 | 47 ft | 8 kts | 13° |
| 2026-05-07 08:20 | 23.39902 | 113.30491 | 47 ft | 8 kts | 86° |
| 2026-05-07 08:20 | 23.39890 | 113.30548 | 48 ft | 7 kts | 103° |
| 2026-05-07 08:21 | 23.39879 | 113.30604 | 49 ft | 9 kts | 101° |
| 2026-05-07 08:21 | 23.39864 | 113.30695 | 50 ft | 13 kts | 100° |
| 2026-05-07 08:21 | 23.39894 | 113.30759 | 50 ft | 11 kts | 24° |
| 2026-05-07 08:21 | 23.39971 | 113.30782 | 52 ft | 11 kts | 14° |
| 2026-05-07 08:22 | 23.40042 | 113.30801 | 54 ft | 10 kts | 13° |
| 2026-05-07 08:22 | 23.40108 | 113.30819 | 55 ft | 9 kts | 14° |
| 2026-05-07 08:22 | 23.40193 | 113.30842 | 58 ft | 16 kts | 14° |
| 2026-05-07 08:22 | 23.40292 | 113.30868 | 62 ft | 10 kts | 14° |
| 2026-05-07 08:23 | 23.40339 | 113.30901 | 66 ft | 8 kts | 68° |
| 2026-05-07 08:23 | 23.40334 | 113.30978 | 69 ft | 11 kts | 103° |
| 2026-05-07 08:23 | 23.40327 | 113.31069 | 68 ft | 11 kts | 57° |
| 2026-05-07 08:23 | 23.40366 | 113.31087 | 69 ft | 6 kts | 13° |
| 2026-05-07 08:24 | 23.40455 | 113.31113 | 71 ft | 16 kts | 15° |
| 2026-05-07 08:24 | 23.40563 | 113.31143 | 73 ft | 14 kts | 14° |
| 2026-05-07 08:24 | 23.40657 | 113.31168 | 73 ft | 12 kts | 13° |
| 2026-05-07 08:24 | 23.40715 | 113.31203 | 72 ft | 7 kts | 72° |
| 2026-05-07 08:25 | 23.40711 | 113.31266 | 72 ft | 10 kts | 101° |
| 2026-05-07 08:25 | 23.40693 | 113.31339 | 73 ft | 7 kts | 115° |
| 2026-05-07 08:25 | 23.40647 | 113.31362 | 73 ft | 8 kts | 182° |
| 2026-05-07 08:25 | 23.40619 | 113.31357 | 73 ft | 0 kts | 193° |
| 2026-05-07 08:26 | 23.40395 | 113.31297 | 67 ft | 66 kts | 194° |
| 2026-05-07 08:26 | 23.39736 | 113.31122 | 50 ft | 125 kts | 194° |
| 2026-05-07 08:26 | 23.38746 | 113.30848 | 136 ft | 162 kts | 194° |
| 2026-05-07 08:27 | 23.37666 | 113.30540 | 692 ft | 161 kts | 193° |
| 2026-05-07 08:27 | 23.36613 | 113.30252 | 1382 ft | 155 kts | 193° |
| 2026-05-07 08:27 | 23.35596 | 113.29984 | 1895 ft | 153 kts | 195° |
| 2026-05-07 08:27 | 23.34518 | 113.29689 | 2145 ft | 165 kts | 195° |
| 2026-05-07 08:28 | 23.33371 | 113.29379 | 2400 ft | 178 kts | 195° |
| 2026-05-07 08:28 | 23.32122 | 113.29037 | 2670 ft | 191 kts | 195° |
| 2026-05-07 08:28 | 23.30779 | 113.28683 | 2941 ft | 205 kts | 192° |
| 2026-05-07 08:28 | 23.29331 | 113.28460 | 3207 ft | 221 kts | 184° |
| 2026-05-07 08:29 | 23.27743 | 113.28410 | 3516 ft | 238 kts | 182° |
| 2026-05-07 08:29 | 23.26045 | 113.28397 | 4010 ft | 247 kts | 181° |
| 2026-05-07 08:29 | 23.24335 | 113.28391 | 4600 ft | 252 kts | 181° |
| 2026-05-07 08:29 | 23.22535 | 113.28379 | 4949 ft | 268 kts | 181° |
| 2026-05-07 08:30 | 23.20633 | 113.28362 | 5496 ft | 277 kts | 183° |
| 2026-05-07 08:30 | 23.18704 | 113.28215 | 6137 ft | 280 kts | 189° |
| 2026-05-07 08:30 | 23.16779 | 113.27852 | 6785 ft | 283 kts | 193° |
| 2026-05-07 08:30 | 23.14871 | 113.27395 | 7437 ft | 286 kts | 194° |
| 2026-05-07 08:31 | 23.12933 | 113.26917 | 8123 ft | 289 kts | 194° |
| 2026-05-07 08:31 | 23.10957 | 113.26430 | 8795 ft | 292 kts | 194° |
| 2026-05-07 08:31 | 23.08968 | 113.25942 | 9397 ft | 297 kts | 194° |
| 2026-05-07 08:31 | 23.06958 | 113.25452 | 10008 ft | 302 kts | 194° |
| 2026-05-07 08:32 | 23.04892 | 113.24949 | 10517 ft | 311 kts | 194° |
| 2026-05-07 08:32 | 23.02740 | 113.24425 | 10811 ft | 328 kts | 194° |
| 2026-05-07 08:32 | 23.00415 | 113.24062 | 11098 ft | 345 kts | 183° |
| 2026-05-07 08:32 | 22.97977 | 113.24185 | 11377 ft | 362 kts | 172° |
| 2026-05-07 08:33 | 22.95466 | 113.24719 | 11655 ft | 378 kts | 168° |
| 2026-05-07 08:33 | 22.92852 | 113.25367 | 11935 ft | 392 kts | 167° |
| 2026-05-07 08:33 | 22.90184 | 113.26039 | 12422 ft | 400 kts | 167° |
| 2026-05-07 08:33 | 22.87459 | 113.26718 | 13095 ft | 403 kts | 167° |
| 2026-05-07 08:34 | 22.84734 | 113.27387 | 13761 ft | 405 kts | 167° |
| 2026-05-07 08:34 | 22.81976 | 113.28059 | 14414 ft | 409 kts | 167° |
| 2026-05-07 08:34 | 22.79208 | 113.28729 | 15068 ft | 412 kts | 167° |
| 2026-05-07 08:34 | 22.76398 | 113.29408 | 15741 ft | 416 kts | 167° |
| 2026-05-07 08:35 | 22.73594 | 113.30084 | 16405 ft | 420 kts | 167° |
| 2026-05-07 08:35 | 22.70730 | 113.30775 | 17075 ft | 423 kts | 167° |
| 2026-05-07 08:35 | 22.67867 | 113.31464 | 17727 ft | 427 kts | 167° |
| 2026-05-07 08:35 | 22.64959 | 113.32164 | 18369 ft | 431 kts | 167° |
| 2026-05-07 08:36 | 22.62056 | 113.32941 | 18993 ft | 435 kts | 164° |
| 2026-05-07 08:36 | 22.59154 | 113.33889 | 19610 ft | 439 kts | 162° |
| 2026-05-07 08:36 | 22.56261 | 113.34886 | 20204 ft | 442 kts | 162° |
| 2026-05-07 08:36 | 22.53318 | 113.35908 | 20782 ft | 446 kts | 162° |
| 2026-05-07 08:37 | 22.50361 | 113.36935 | 21340 ft | 449 kts | 162° |
| 2026-05-07 08:37 | 22.47418 | 113.37955 | 21873 ft | 453 kts | 162° |
| 2026-05-07 08:37 | 22.44419 | 113.38992 | 22396 ft | 456 kts | 162° |
| 2026-05-07 08:37 | 22.41371 | 113.40044 | 22908 ft | 459 kts | 162° |
| 2026-05-07 08:38 | 22.38350 | 113.41087 | 23401 ft | 462 kts | 162° |
| 2026-05-07 08:38 | 22.35288 | 113.42142 | 23879 ft | 465 kts | 162° |
| 2026-05-07 08:38 | 22.32183 | 113.43211 | 24326 ft | 469 kts | 162° |
| 2026-05-07 08:38 | 22.29108 | 113.44271 | 24515 ft | 471 kts | 162° |
| 2026-05-07 08:39 | 22.25991 | 113.45344 | 24518 ft | 470 kts | 162° |
| 2026-05-07 08:39 | 22.22893 | 113.46410 | 24524 ft | 470 kts | 162° |
| 2026-05-07 08:39 | 22.19784 | 113.47507 | 24782 ft | 476 kts | 161° |
| 2026-05-07 08:39 | 22.16756 | 113.48615 | 25291 ft | 476 kts | 160° |
| 2026-05-07 08:40 | 22.13552 | 113.49800 | 25781 ft | 478 kts | 160° |
| 2026-05-07 08:40 | 22.10383 | 113.50970 | 26199 ft | 481 kts | 160° |
| 2026-05-07 08:40 | 22.07238 | 113.52125 | 26592 ft | 483 kts | 160° |
| 2026-05-07 08:40 | 22.04038 | 113.53297 | 26983 ft | 486 kts | 160° |
| 2026-05-07 08:41 | 22.00876 | 113.54549 | 27360 ft | 488 kts | 158° |
| 2026-05-07 08:41 | 21.97784 | 113.55975 | 27725 ft | 491 kts | 154° |
| 2026-05-07 08:41 | 21.94701 | 113.57628 | 28090 ft | 493 kts | 151° |
| 2026-05-07 08:41 | 21.91740 | 113.59406 | 28440 ft | 495 kts | 149° |
| 2026-05-07 08:42 | 21.88755 | 113.61238 | 28837 ft | 496 kts | 149° |
| 2026-05-07 08:42 | 21.85749 | 113.63088 | 29344 ft | 494 kts | 149° |
| 2026-05-07 08:42 | 21.82794 | 113.64902 | 29855 ft | 492 kts | 149° |
| 2026-05-07 08:42 | 21.79864 | 113.66695 | 30335 ft | 490 kts | 149° |
| 2026-05-07 08:43 | 21.76891 | 113.68509 | 30798 ft | 489 kts | 149° |
| 2026-05-07 08:43 | 21.73938 | 113.70309 | 31245 ft | 488 kts | 149° |
| 2026-05-07 08:43 | 21.71029 | 113.72079 | 31679 ft | 486 kts | 149° |
| 2026-05-07 08:43 | 21.68123 | 113.73879 | 32107 ft | 485 kts | 147° |
| 2026-05-07 08:44 | 21.65401 | 113.76042 | 32522 ft | 482 kts | 137° |
| 2026-05-07 08:44 | 21.63081 | 113.78558 | 32928 ft | 479 kts | 129° |
| 2026-05-07 08:44 | 21.61134 | 113.81430 | 33330 ft | 476 kts | 120° |
| 2026-05-07 08:44 | 21.59622 | 113.84555 | 33721 ft | 473 kts | 111° |
| 2026-05-07 08:45 | 21.58554 | 113.87904 | 34107 ft | 470 kts | 103° |
| 2026-05-07 08:45 | 21.57970 | 113.91318 | 34475 ft | 467 kts | 95° |
| 2026-05-07 08:45 | 21.57766 | 113.94775 | 34840 ft | 465 kts | 91° |
| 2026-05-07 08:45 | 21.57651 | 113.98264 | 35193 ft | 464 kts | 90° |
| 2026-05-07 08:46 | 21.57553 | 114.01679 | 35527 ft | 464 kts | 90° |
| 2026-05-07 08:46 | 21.57450 | 114.05142 | 35858 ft | 463 kts | 90° |
| 2026-05-07 08:46 | 21.57340 | 114.08609 | 36182 ft | 462 kts | 90° |
| 2026-05-07 08:46 | 21.57224 | 114.12044 | 36489 ft | 462 kts | 90° |
| 2026-05-07 08:47 | 21.57103 | 114.15498 | 36774 ft | 461 kts | 91° |
| 2026-05-07 08:47 | 21.56981 | 114.18890 | 37034 ft | 461 kts | 91° |
| 2026-05-07 08:47 | 21.56856 | 114.22327 | 37288 ft | 461 kts | 91° |
| 2026-05-07 08:47 | 21.56730 | 114.25767 | 37535 ft | 461 kts | 91° |
| 2026-05-07 08:48 | 21.56601 | 114.29216 | 37777 ft | 461 kts | 91° |
| 2026-05-07 08:48 | 21.56473 | 114.32645 | 38007 ft | 462 kts | 91° |
| 2026-05-07 08:48 | 21.56343 | 114.36095 | 38237 ft | 462 kts | 91° |
| 2026-05-07 08:48 | 21.56213 | 114.39518 | 38461 ft | 462 kts | 91° |
| 2026-05-07 08:49 | 21.56082 | 114.42954 | 38680 ft | 462 kts | 91° |
| 2026-05-07 08:49 | 21.55950 | 114.46397 | 38868 ft | 462 kts | 91° |
| 2026-05-07 08:49 | 21.55684 | 114.53288 | 38900 ft | 462 kts | 91° |
| 2026-05-07 08:50 | 21.55415 | 114.60159 | 38902 ft | 462 kts | 91° |
| 2026-05-07 08:50 | 21.55144 | 114.67024 | 38903 ft | 462 kts | 91° |
| 2026-05-07 08:51 | 21.54870 | 114.73904 | 38903 ft | 462 kts | 91° |
| 2026-05-07 08:51 | 21.54594 | 114.80765 | 38903 ft | 462 kts | 91° |
| 2026-05-07 08:52 | 21.54313 | 114.87669 | 38903 ft | 462 kts | 91° |
| 2026-05-07 08:52 | 21.54031 | 114.94554 | 38903 ft | 462 kts | 91° |
| 2026-05-07 08:53 | 21.53747 | 115.01424 | 38904 ft | 461 kts | 91° |
| 2026-05-07 08:53 | 21.53460 | 115.08270 | 38904 ft | 459 kts | 91° |
| 2026-05-07 08:54 | 21.53480 | 115.15097 | 38903 ft | 457 kts | 86° |
| 2026-05-07 08:54 | 21.54128 | 115.21873 | 38904 ft | 455 kts | 82° |
| 2026-05-07 08:55 | 21.54983 | 115.28565 | 38903 ft | 455 kts | 82° |
| 2026-05-07 08:55 | 21.55845 | 115.35290 | 38903 ft | 455 kts | 82° |
| 2026-05-07 08:56 | 21.56700 | 115.42014 | 38903 ft | 455 kts | 82° |
| 2026-05-07 08:56 | 21.57551 | 115.48725 | 38903 ft | 455 kts | 82° |
| 2026-05-07 08:57 | 21.58395 | 115.55412 | 38903 ft | 455 kts | 82° |
| 2026-05-07 08:57 | 21.59240 | 115.62138 | 38903 ft | 455 kts | 82° |
| 2026-05-07 08:58 | 21.60082 | 115.68864 | 38904 ft | 455 kts | 82° |
| 2026-05-07 08:58 | 21.60919 | 115.75573 | 38904 ft | 455 kts | 82° |
| 2026-05-07 08:59 | 21.61753 | 115.82278 | 38908 ft | 455 kts | 82° |
| 2026-05-07 08:59 | 21.62590 | 115.89034 | 38914 ft | 455 kts | 82° |
| 2026-05-07 09:00 | 21.63418 | 115.95745 | 38920 ft | 455 kts | 82° |
| 2026-05-07 09:00 | 21.64246 | 116.02472 | 38925 ft | 455 kts | 82° |
| 2026-05-07 09:01 | 21.65069 | 116.09181 | 38927 ft | 455 kts | 82° |
| 2026-05-07 09:01 | 21.65890 | 116.15900 | 38928 ft | 455 kts | 82° |
| 2026-05-07 09:02 | 21.66709 | 116.22625 | 38928 ft | 455 kts | 82° |
| 2026-05-07 09:02 | 21.67525 | 116.29340 | 38928 ft | 455 kts | 82° |
| 2026-05-07 09:03 | 21.68341 | 116.36083 | 38928 ft | 455 kts | 82° |
| 2026-05-07 09:03 | 21.69153 | 116.42817 | 38928 ft | 455 kts | 82° |
| 2026-05-07 09:04 | 21.69957 | 116.49504 | 38928 ft | 455 kts | 82° |
| 2026-05-07 09:04 | 21.70767 | 116.56261 | 38928 ft | 455 kts | 82° |
| 2026-05-07 09:05 | 21.71569 | 116.62977 | 38928 ft | 455 kts | 82° |
| 2026-05-07 09:05 | 21.72369 | 116.69704 | 38928 ft | 455 kts | 82° |
| 2026-05-07 09:06 | 21.73414 | 116.76385 | 38928 ft | 455 kts | 77° |
| 2026-05-07 09:06 | 21.75089 | 116.82947 | 38928 ft | 455 kts | 71° |
| 2026-05-07 09:07 | 21.77295 | 116.89301 | 38928 ft | 455 kts | 69° |
| 2026-05-07 09:07 | 21.79588 | 116.95581 | 38928 ft | 454 kts | 69° |
| 2026-05-07 09:08 | 21.81894 | 117.01927 | 38927 ft | 456 kts | 70° |
| 2026-05-07 09:08 | 21.84188 | 117.08269 | 38927 ft | 459 kts | 70° |
| 2026-05-07 09:09 | 21.86517 | 117.14732 | 38927 ft | 464 kts | 71° |
| 2026-05-07 09:09 | 21.88839 | 117.21189 | 38928 ft | 465 kts | 71° |
| 2026-05-07 09:10 | 21.91154 | 117.27627 | 38928 ft | 465 kts | 71° |
| 2026-05-07 09:10 | 21.93491 | 117.34132 | 38928 ft | 465 kts | 71° |
| 2026-05-07 09:11 | 21.95810 | 117.40595 | 38928 ft | 465 kts | 71° |
| 2026-05-07 09:11 | 21.98190 | 117.47061 | 38927 ft | 465 kts | 68° |
| 2026-05-07 09:12 | 22.01062 | 117.53284 | 38927 ft | 467 kts | 62° |
| 2026-05-07 09:12 | 22.04397 | 117.59251 | 38928 ft | 468 kts | 60° |
| 2026-05-07 09:13 | 22.07816 | 117.65241 | 38927 ft | 468 kts | 60° |
| 2026-05-07 09:13 | 22.11191 | 117.71173 | 38927 ft | 467 kts | 60° |
| 2026-05-07 09:14 | 22.14588 | 117.77164 | 38928 ft | 467 kts | 60° |
| 2026-05-07 09:14 | 22.17970 | 117.83137 | 38928 ft | 467 kts | 60° |
| 2026-05-07 09:15 | 22.21347 | 117.89111 | 38928 ft | 467 kts | 60° |
| 2026-05-07 09:15 | 22.24701 | 117.95046 | 38928 ft | 467 kts | 60° |
| 2026-05-07 09:16 | 22.28089 | 118.01047 | 38928 ft | 468 kts | 60° |
| 2026-05-07 09:16 | 22.31540 | 118.06977 | 38928 ft | 468 kts | 59° |
| 2026-05-07 09:17 | 22.34953 | 118.12806 | 38928 ft | 468 kts | 59° |
| 2026-05-07 09:17 | 22.38407 | 118.18729 | 38928 ft | 468 kts | 60° |
| 2026-05-07 09:18 | 22.41856 | 118.24708 | 38928 ft | 468 kts | 60° |
| 2026-05-07 09:18 | 22.45237 | 118.30691 | 38928 ft | 468 kts | 60° |
| 2026-05-07 09:19 | 22.48593 | 118.36632 | 38928 ft | 468 kts | 60° |
| 2026-05-07 09:19 | 22.51982 | 118.42622 | 38928 ft | 468 kts | 60° |
| 2026-05-07 09:20 | 22.55364 | 118.48608 | 38928 ft | 468 kts | 60° |
| 2026-05-07 09:20 | 22.58758 | 118.54600 | 38928 ft | 468 kts | 60° |
| 2026-05-07 09:21 | 22.62164 | 118.60580 | 38928 ft | 468 kts | 60° |
| 2026-05-07 09:21 | 22.65557 | 118.66538 | 38928 ft | 468 kts | 60° |
| 2026-05-07 09:22 | 22.68945 | 118.72496 | 38928 ft | 468 kts | 60° |
| 2026-05-07 09:22 | 22.72358 | 118.78506 | 38928 ft | 468 kts | 60° |
| 2026-05-07 09:23 | 22.75759 | 118.84501 | 38928 ft | 468 kts | 60° |
| 2026-05-07 09:23 | 22.79132 | 118.90456 | 38928 ft | 467 kts | 60° |
| 2026-05-07 09:24 | 22.82529 | 118.96459 | 38928 ft | 467 kts | 60° |
| 2026-05-07 09:24 | 22.85920 | 119.02458 | 38928 ft | 467 kts | 60° |
| 2026-05-07 09:25 | 22.89300 | 119.08443 | 38928 ft | 467 kts | 60° |
| 2026-05-07 09:25 | 22.92680 | 119.14438 | 38927 ft | 468 kts | 60° |
| 2026-05-07 09:26 | 22.96070 | 119.20457 | 38927 ft | 470 kts | 60° |
| 2026-05-07 09:26 | 22.99480 | 119.26517 | 38927 ft | 472 kts | 60° |
| 2026-05-07 09:27 | 23.02889 | 119.32584 | 38890 ft | 475 kts | 60° |
| 2026-05-07 09:27 | 23.06327 | 119.38707 | 38273 ft | 474 kts | 60° |
| 2026-05-07 09:28 | 23.08038 | 119.41754 | 37800 ft | 474 kts | 60° |
| 2026-05-07 09:28 | 23.09731 | 119.44775 | 37280 ft | 475 kts | 60° |
| 2026-05-07 09:28 | 23.11456 | 119.47854 | 36729 ft | 475 kts | 60° |
| 2026-05-07 09:28 | 23.13217 | 119.50836 | 36150 ft | 476 kts | 57° |
| 2026-05-07 09:29 | 23.15198 | 119.53740 | 35556 ft | 478 kts | 53° |
| 2026-05-07 09:29 | 23.17355 | 119.56462 | 34967 ft | 479 kts | 48° |
| 2026-05-07 09:29 | 23.19690 | 119.59002 | 34387 ft | 480 kts | 44° |
| 2026-05-07 09:29 | 23.22210 | 119.61365 | 33826 ft | 480 kts | 39° |
| 2026-05-07 09:30 | 23.24869 | 119.63509 | 33251 ft | 481 kts | 35° |
| 2026-05-07 09:30 | 23.27704 | 119.65462 | 32651 ft | 481 kts | 32° |
| 2026-05-07 09:30 | 23.30584 | 119.67281 | 32029 ft | 482 kts | 31° |
| 2026-05-07 09:30 | 23.33491 | 119.69079 | 31405 ft | 483 kts | 31° |
| 2026-05-07 09:31 | 23.36382 | 119.70869 | 30776 ft | 483 kts | 31° |
| 2026-05-07 09:31 | 23.39269 | 119.72669 | 30148 ft | 483 kts | 31° |
| 2026-05-07 09:31 | 23.42196 | 119.74504 | 29496 ft | 483 kts | 31° |
| 2026-05-07 09:31 | 23.45082 | 119.76321 | 29051 ft | 481 kts | 31° |
| 2026-05-07 09:32 | 23.47985 | 119.78172 | 28919 ft | 483 kts | 33° |
| 2026-05-07 09:32 | 23.53661 | 119.82046 | 28921 ft | 484 kts | 34° |
| 2026-05-07 09:33 | 23.59312 | 119.85952 | 28921 ft | 484 kts | 34° |
| 2026-05-07 09:33 | 23.64969 | 119.89857 | 28921 ft | 484 kts | 34° |
| 2026-05-07 09:34 | 23.70633 | 119.93766 | 28915 ft | 483 kts | 34° |
| 2026-05-07 09:34 | 23.73454 | 119.95713 | 28592 ft | 482 kts | 34° |
| 2026-05-07 09:34 | 23.76274 | 119.97661 | 27622 ft | 489 kts | 34° |
| 2026-05-07 09:34 | 23.79155 | 119.99653 | 26700 ft | 493 kts | 34° |
| 2026-05-07 09:35 | 23.82054 | 120.01656 | 26248 ft | 486 kts | 34° |
| 2026-05-07 09:35 | 23.84872 | 120.03603 | 25802 ft | 480 kts | 34° |
| 2026-05-07 09:35 | 23.87661 | 120.05532 | 25298 ft | 475 kts | 34° |
| 2026-05-07 09:35 | 23.90428 | 120.07447 | 24757 ft | 471 kts | 34° |
| 2026-05-07 09:36 | 23.93156 | 120.09337 | 24220 ft | 467 kts | 34° |
| 2026-05-07 09:36 | 23.95907 | 120.11243 | 23681 ft | 463 kts | 34° |
| 2026-05-07 09:36 | 23.98602 | 120.13110 | 23150 ft | 459 kts | 34° |
| 2026-05-07 09:36 | 24.01259 | 120.14953 | 22625 ft | 455 kts | 34° |
| 2026-05-07 09:37 | 24.03917 | 120.16796 | 22097 ft | 452 kts | 34° |
| 2026-05-07 09:37 | 24.06541 | 120.18617 | 21573 ft | 448 kts | 34° |
| 2026-05-07 09:37 | 24.09177 | 120.20449 | 21045 ft | 444 kts | 34° |
| 2026-05-07 09:37 | 24.11756 | 120.22242 | 20524 ft | 440 kts | 34° |
| 2026-05-07 09:38 | 24.14309 | 120.24020 | 20005 ft | 437 kts | 34° |
| 2026-05-07 09:38 | 24.16872 | 120.25806 | 19484 ft | 433 kts | 34° |
| 2026-05-07 09:38 | 24.19404 | 120.27571 | 18967 ft | 430 kts | 34° |
| 2026-05-07 09:38 | 24.21892 | 120.29305 | 18456 ft | 426 kts | 34° |
| 2026-05-07 09:39 | 24.24387 | 120.31045 | 17943 ft | 423 kts | 34° |
| 2026-05-07 09:39 | 24.26841 | 120.32756 | 17436 ft | 420 kts | 34° |
| 2026-05-07 09:39 | 24.29289 | 120.34463 | 16928 ft | 416 kts | 34° |
| 2026-05-07 09:39 | 24.31703 | 120.36148 | 16427 ft | 413 kts | 34° |
| 2026-05-07 09:40 | 24.34100 | 120.37822 | 15928 ft | 410 kts | 34° |
| 2026-05-07 09:40 | 24.36504 | 120.39501 | 15426 ft | 407 kts | 34° |
| 2026-05-07 09:40 | 24.38877 | 120.41159 | 14928 ft | 404 kts | 34° |
| 2026-05-07 09:40 | 24.41219 | 120.42796 | 14436 ft | 401 kts | 33° |
| 2026-05-07 09:41 | 24.43548 | 120.44424 | 13945 ft | 398 kts | 33° |
| 2026-05-07 09:41 | 24.45889 | 120.46063 | 13467 ft | 394 kts | 33° |
| 2026-05-07 09:41 | 24.48170 | 120.47659 | 13120 ft | 388 kts | 33° |
| 2026-05-07 09:41 | 24.50410 | 120.49226 | 12764 ft | 382 kts | 33° |
| 2026-05-07 09:42 | 24.52640 | 120.50788 | 12425 ft | 375 kts | 33° |
| 2026-05-07 09:42 | 24.54791 | 120.52295 | 12098 ft | 370 kts | 33° |
| 2026-05-07 09:42 | 24.56945 | 120.53804 | 11761 ft | 364 kts | 33° |
| 2026-05-07 09:42 | 24.59059 | 120.55286 | 11435 ft | 359 kts | 33° |
| 2026-05-07 09:43 | 24.61145 | 120.56750 | 11108 ft | 354 kts | 33° |
| 2026-05-07 09:43 | 24.63189 | 120.58185 | 10788 ft | 349 kts | 33° |
| 2026-05-07 09:43 | 24.65228 | 120.59618 | 10472 ft | 344 kts | 33° |
| 2026-05-07 09:43 | 24.67197 | 120.61077 | 10164 ft | 338 kts | 37° |
| 2026-05-07 09:44 | 24.68992 | 120.62687 | 9865 ft | 333 kts | 42° |
| 2026-05-07 09:44 | 24.70713 | 120.64364 | 9575 ft | 329 kts | 43° |
| 2026-05-07 09:44 | 24.72402 | 120.66032 | 9294 ft | 324 kts | 43° |
| 2026-05-07 09:44 | 24.74071 | 120.67680 | 9019 ft | 320 kts | 43° |
| 2026-05-07 09:45 | 24.75716 | 120.69303 | 8631 ft | 312 kts | 43° |
| 2026-05-07 09:45 | 24.77291 | 120.70856 | 8120 ft | 302 kts | 43° |
| 2026-05-07 09:45 | 24.78843 | 120.72384 | 7532 ft | 295 kts | 42° |
| 2026-05-07 09:45 | 24.80345 | 120.73863 | 6996 ft | 287 kts | 42° |
| 2026-05-07 09:46 | 24.81808 | 120.75304 | 6547 ft | 278 kts | 42° |
| 2026-05-07 09:46 | 24.83213 | 120.76685 | 6320 ft | 268 kts | 42° |
| 2026-05-07 09:46 | 24.84606 | 120.78055 | 6083 ft | 266 kts | 42° |
| 2026-05-07 09:46 | 24.85983 | 120.79410 | 5839 ft | 265 kts | 42° |
| 2026-05-07 09:47 | 24.87331 | 120.80740 | 5597 ft | 263 kts | 42° |
| 2026-05-07 09:47 | 24.88702 | 120.82091 | 5351 ft | 262 kts | 42° |
| 2026-05-07 09:47 | 24.90060 | 120.83431 | 5107 ft | 261 kts | 42° |
| 2026-05-07 09:47 | 24.91289 | 120.84862 | 4840 ft | 261 kts | 59° |
| 2026-05-07 09:48 | 24.91848 | 120.86736 | 4570 ft | 261 kts | 86° |
| 2026-05-07 09:48 | 24.91815 | 120.88731 | 4325 ft | 261 kts | 92° |
| 2026-05-07 09:48 | 24.91702 | 120.90725 | 4082 ft | 260 kts | 92° |
| 2026-05-07 09:48 | 24.91586 | 120.92742 | 3997 ft | 262 kts | 92° |
| 2026-05-07 09:49 | 24.91481 | 120.94687 | 3987 ft | 251 kts | 92° |
| 2026-05-07 09:49 | 24.91386 | 120.96577 | 3986 ft | 241 kts | 92° |
| 2026-05-07 09:49 | 24.91299 | 120.98372 | 3980 ft | 230 kts | 91° |
| 2026-05-07 09:49 | 24.91257 | 121.00079 | 3969 ft | 217 kts | 79° |
| 2026-05-07 09:50 | 24.91705 | 121.01605 | 3946 ft | 204 kts | 60° |
| 2026-05-07 09:50 | 24.92499 | 121.02905 | 3625 ft | 208 kts | 50° |
| 2026-05-07 09:50 | 24.93449 | 121.04106 | 3468 ft | 205 kts | 47° |
| 2026-05-07 09:50 | 24.94390 | 121.05245 | 3315 ft | 201 kts | 47° |
| 2026-05-07 09:51 | 24.95320 | 121.06386 | 3159 ft | 197 kts | 47° |
| 2026-05-07 09:51 | 24.96208 | 121.07496 | 2980 ft | 192 kts | 48° |
| 2026-05-07 09:51 | 24.97072 | 121.08591 | 2875 ft | 181 kts | 48° |
| 2026-05-07 09:51 | 24.97863 | 121.09598 | 2845 ft | 168 kts | 48° |
| 2026-05-07 09:52 | 24.98612 | 121.10556 | 2699 ft | 165 kts | 48° |
| 2026-05-07 09:52 | 24.99357 | 121.11505 | 2479 ft | 163 kts | 48° |
| 2026-05-07 09:52 | 25.00082 | 121.12431 | 2259 ft | 156 kts | 47° |
| 2026-05-07 09:52 | 25.00779 | 121.13319 | 2045 ft | 151 kts | 47° |
| 2026-05-07 09:53 | 25.01476 | 121.14208 | 1849 ft | 152 kts | 47° |
| 2026-05-07 09:53 | 25.02164 | 121.15082 | 1654 ft | 152 kts | 47° |
| 2026-05-07 09:53 | 25.02843 | 121.15947 | 1451 ft | 147 kts | 47° |
| 2026-05-07 09:53 | 25.03503 | 121.16786 | 1261 ft | 145 kts | 47° |
| 2026-05-07 09:54 | 25.04167 | 121.17631 | 1073 ft | 144 kts | 47° |
| 2026-05-07 09:54 | 25.04827 | 121.18470 | 883 ft | 144 kts | 47° |
| 2026-05-07 09:54 | 25.05480 | 121.19300 | 691 ft | 143 kts | 47° |
| 2026-05-07 09:54 | 25.06127 | 121.20122 | 500 ft | 143 kts | 47° |
| 2026-05-07 09:55 | 25.06779 | 121.20951 | 309 ft | 142 kts | 47° |
| 2026-05-07 09:55 | 25.07421 | 121.21767 | 126 ft | 140 kts | 47° |
| 2026-05-07 09:55 | 25.07969 | 121.22464 | 123 ft | 93 kts | 48° |
| 2026-05-07 09:55 | 25.08290 | 121.22868 | 123 ft | 48 kts | 48° |
| 2026-05-07 09:56 | 25.08422 | 121.23093 | 122 ft | 24 kts | 70° |
| 2026-05-07 09:56 | 25.08459 | 121.23246 | 123 ft | 13 kts | 77° |
| 2026-05-07 09:56 | 25.08433 | 121.23325 | 122 ft | 11 kts | 163° |
| 2026-05-07 09:56 | 25.08366 | 121.23278 | 122 ft | 12 kts | 229° |
| 2026-05-07 09:57 | 25.08302 | 121.23197 | 122 ft | 15 kts | 229° |
| 2026-05-07 09:57 | 25.08240 | 121.23118 | 122 ft | 11 kts | 222° |
| 2026-05-07 09:57 | 25.08191 | 121.23123 | 122 ft | 8 kts | 141° |
| 2026-05-07 09:57 | 25.08143 | 121.23148 | 122 ft | 7 kts | 189° |
| 2026-05-07 09:58 | 25.08098 | 121.23106 | 122 ft | 9 kts | 229° |
| 2026-05-07 09:58 | 25.08052 | 121.23047 | 122 ft | 10 kts | 229° |
| 2026-05-07 09:58 | 25.08001 | 121.22982 | 122 ft | 11 kts | 229° |
| 2026-05-07 09:58 | 25.07943 | 121.22909 | 122 ft | 12 kts | 229° |
| 2026-05-07 09:59 | 25.07899 | 121.22858 | 122 ft | 5 kts | 208° |
| 2026-05-07 09:59 | 25.07865 | 121.22870 | 122 ft | 5 kts | 140° |
| 2026-05-07 09:59 | 25.07835 | 121.22897 | 122 ft | 5 kts | 139° |
| 2026-05-07 09:59 | 25.07816 | 121.22916 | 122 ft | 2 kts | 140° |
| 2026-05-07 10:00 | 25.07811 | 121.22920 | 122 ft | 0 kts | 140° |